Time;durP1;ratioP1;P1;durP2;ratioP2;P2;SDS_P1;SDS_P2;PMS_P1;PMS_P2;Temp;Humidity;BMP_temperature;BMP_pressure;BME280_temperature;BME280_humidity;BME280_pressure;Samples;Min_cycle;Max_cycle;Signal;HPM_P1;HPM_P2
2022/06/14 00:00:55;;;;;;;0.50;0.40;;;11.70;99.90;;;;;;5035964;28;20212;-81
2022/06/14 00:03:23;;;;;;;0.50;0.40;;;11.80;99.90;;;;;;5036156;28;20223;-82
2022/06/14 00:05:51;;;;;;;0.50;0.40;;;11.80;99.90;;;;;;5037022;28;20202;-80
2022/06/14 00:08:19;;;;;;;0.50;0.40;;;11.80;99.90;;;;;;5035681;28;20222;-81
2022/06/14 00:10:48;;;;;;;0.50;0.40;;;11.80;99.90;;;;;;5035785;28;20286;-81
2022/06/14 00:13:15;;;;;;;0.50;0.40;;;11.70;99.90;;;;;;5035572;28;20278;-81
2022/06/14 00:15:44;;;;;;;0.50;0.30;;;11.70;99.90;;;;;;5036162;28;20208;-81
2022/06/14 00:18:11;;;;;;;0.50;0.40;;;11.60;99.90;;;;;;5035587;28;20221;-81
2022/06/14 00:20:38;;;;;;;0.50;0.40;;;11.60;99.90;;;;;;5036267;28;20214;-81
2022/06/14 00:23:05;;;;;;;0.50;0.40;;;11.60;99.90;;;;;;5035299;28;20307;-81
2022/06/14 00:25:36;;;;;;;0.50;0.40;;;11.60;99.90;;;;;;5035753;28;20198;-81
2022/06/14 00:28:05;;;;;;;0.50;0.40;;;11.50;99.90;;;;;;5035232;28;20259;-82
2022/06/14 00:30:33;;;;;;;0.50;0.40;;;11.50;99.90;;;;;;5035699;28;20241;-81
2022/06/14 00:33:00;;;;;;;0.50;0.40;;;11.40;99.90;;;;;;5035133;28;20190;-81
2022/06/14 00:35:27;;;;;;;0.50;0.40;;;11.40;99.90;;;;;;5034809;28;20297;-81
2022/06/14 00:37:54;;;;;;;0.50;0.40;;;11.40;99.90;;;;;;5034269;28;20251;-81
2022/06/14 00:40:25;;;;;;;0.50;0.40;;;11.30;99.90;;;;;;5035110;28;20234;-81
2022/06/14 00:42:52;;;;;;;0.50;0.30;;;11.30;99.90;;;;;;5034617;28;20313;-81
2022/06/14 00:45:56;;;;;;;0.50;0.40;;;11.30;99.90;;;;;;5034788;28;20568;-80
2022/06/14 00:48:27;;;;;;;0.50;0.40;;;11.30;99.90;;;;;;5034772;28;20276;-82
2022/06/14 00:51:02;;;;;;;0.50;0.40;;;11.20;99.90;;;;;;5035102;28;20297;-82
2022/06/14 00:53:34;;;;;;;0.50;0.40;;;11.20;99.90;;;;;;5033862;28;20297;-81
2022/06/14 00:56:06;;;;;;;0.50;0.40;;;11.10;99.90;;;;;;5033894;28;20301;-81
2022/06/14 00:58:37;;;;;;;0.50;0.40;;;11.10;99.90;;;;;;5034493;28;20246;-81
2022/06/14 01:01:08;;;;;;;0.50;0.40;;;11.20;99.90;;;;;;5034909;28;20187;-81
2022/06/14 01:03:42;;;;;;;0.50;0.40;;;11.30;99.90;;;;;;5034075;28;20215;-81
2022/06/14 01:06:14;;;;;;;0.50;0.40;;;11.30;99.90;;;;;;5035202;28;20197;-80
2022/06/14 01:08:47;;;;;;;0.50;0.40;;;11.30;99.90;;;;;;5038197;28;20209;-81
2022/06/14 01:11:21;;;;;;;0.50;0.40;;;11.20;99.90;;;;;;5038112;28;20204;-81
2022/06/14 01:13:48;;;;;;;0.50;0.40;;;11.30;99.90;;;;;;5037968;28;20206;-80
2022/06/14 01:16:16;;;;;;;0.50;0.40;;;11.20;99.90;;;;;;5037620;28;20198;-81
2022/06/14 01:18:45;;;;;;;0.50;0.40;;;11.10;99.90;;;;;;5037180;28;20672;-80
2022/06/14 01:21:11;;;;;;;0.50;0.40;;;11.00;99.90;;;;;;5038377;28;20205;-81
2022/06/14 01:23:40;;;;;;;0.50;0.40;;;10.90;99.90;;;;;;5038338;28;20324;-80
2022/06/14 01:26:16;;;;;;;0.50;0.40;;;10.80;99.90;;;;;;5038292;28;20199;-81
2022/06/14 01:28:47;;;;;;;0.50;0.40;;;10.80;99.90;;;;;;5037543;28;20284;-81
2022/06/14 01:31:17;;;;;;;0.50;0.40;;;10.80;99.90;;;;;;5037627;28;20205;-81
2022/06/14 01:33:46;;;;;;;0.50;0.40;;;10.80;99.90;;;;;;5037593;28;20609;-80
2022/06/14 01:36:18;;;;;;;0.50;0.40;;;10.80;99.90;;;;;;5037540;28;20237;-81
2022/06/14 01:38:48;;;;;;;0.50;0.40;;;10.80;99.90;;;;;;5037691;28;20277;-81
2022/06/14 01:41:28;;;;;;;0.50;0.40;;;10.80;99.90;;;;;;5038027;28;20237;-81
2022/06/14 01:44:09;;;;;;;0.50;0.40;;;10.80;99.90;;;;;;5037734;28;20585;-82
2022/06/14 01:46:45;;;;;;;0.50;0.40;;;10.80;99.90;;;;;;5037465;28;20257;-81
2022/06/14 01:52:25;;;;;;;0.50;0.40;;;10.70;99.90;;;;;;5036928;28;20306;-81
2022/06/14 01:55:03;;;;;;;0.50;0.40;;;10.60;99.90;;;;;;5036692;28;20225;-81
2022/06/14 01:57:35;;;;;;;0.50;0.40;;;10.60;99.90;;;;;;5036745;28;20325;-82
2022/06/14 02:00:07;;;;;;;0.50;0.40;;;10.50;99.90;;;;;;5037398;28;20187;-82
2022/06/14 02:02:39;;;;;;;0.50;0.40;;;10.50;99.90;;;;;;5036942;28;20202;-81
2022/06/14 02:05:13;;;;;;;0.50;0.40;;;10.50;99.90;;;;;;5037179;28;20737;-81
2022/06/14 02:07:48;;;;;;;0.50;0.40;;;10.50;99.90;;;;;;5036724;28;20279;-81
2022/06/14 02:10:22;;;;;;;0.50;0.40;;;10.40;99.90;;;;;;5036315;28;20229;-81
2022/06/14 02:12:57;;;;;;;0.50;0.40;;;10.40;99.90;;;;;;5035604;28;20281;-81
2022/06/14 02:15:29;;;;;;;0.50;0.40;;;10.40;99.90;;;;;;5036952;28;20185;-81
2022/06/14 02:18:01;;;;;;;0.50;0.40;;;10.50;99.90;;;;;;5036293;28;20318;-81
2022/06/14 02:20:36;;;;;;;0.50;0.40;;;10.50;99.90;;;;;;5036386;28;20201;-82
2022/06/14 02:23:08;;;;;;;0.50;0.40;;;10.40;99.90;;;;;;5036089;28;20261;-80
2022/06/14 02:25:42;;;;;;;0.50;0.40;;;10.30;99.90;;;;;;5036487;28;20639;-80
2022/06/14 02:28:14;;;;;;;0.50;0.40;;;10.30;99.90;;;;;;5035812;28;20731;-80
2022/06/14 02:30:46;;;;;;;0.50;0.40;;;10.30;99.90;;;;;;5036037;28;20220;-81
2022/06/14 02:33:19;;;;;;;0.50;0.40;;;10.30;99.90;;;;;;5035875;28;20209;-80
2022/06/14 02:35:52;;;;;;;0.50;0.40;;;10.40;99.90;;;;;;5036161;28;20293;-82
2022/06/14 02:38:24;;;;;;;0.50;0.40;;;10.40;99.90;;;;;;5035937;28;20214;-81
2022/06/14 02:40:57;;;;;;;0.50;0.40;;;10.40;99.90;;;;;;5035314;28;20185;-81
2022/06/14 02:43:32;;;;;;;0.50;0.40;;;10.40;99.90;;;;;;5035751;28;20181;-81
2022/06/14 02:46:05;;;;;;;0.50;0.40;;;10.40;99.90;;;;;;5035165;28;20237;-82
2022/06/14 02:48:42;;;;;;;0.50;0.40;;;10.30;99.90;;;;;;5035101;28;20204;-82
2022/06/14 02:51:14;;;;;;;0.50;0.40;;;10.30;99.90;;;;;;5035726;28;20273;-81
2022/06/14 02:53:49;;;;;;;0.50;0.40;;;10.30;99.90;;;;;;5034646;28;20313;-81
2022/06/14 02:56:21;;;;;;;0.50;0.40;;;10.40;99.90;;;;;;5035173;28;20296;-82
2022/06/14 02:58:54;;;;;;;0.50;0.40;;;10.40;99.90;;;;;;5034871;28;20218;-82
2022/06/14 03:01:27;;;;;;;0.50;0.40;;;10.30;99.90;;;;;;5035554;28;20276;-82
2022/06/14 03:03:57;;;;;;;0.50;0.40;;;10.20;99.90;;;;;;5035430;28;20432;-81
2022/06/14 03:06:31;;;;;;;0.50;0.40;;;10.20;99.90;;;;;;5035051;28;20250;-83
2022/06/14 03:09:02;;;;;;;0.50;0.40;;;10.20;99.90;;;;;;5034875;28;20197;-81
2022/06/14 03:11:41;;;;;;;0.50;0.40;;;10.20;99.90;;;;;;5034630;28;20202;-79
2022/06/14 03:14:19;;;;;;;0.50;0.40;;;10.20;99.90;;;;;;5034756;28;20206;-79
2022/06/14 03:16:57;;;;;;;0.50;0.40;;;10.10;99.90;;;;;;5034637;28;20308;-79
2022/06/14 03:19:34;;;;;;;0.50;0.40;;;10.10;99.90;;;;;;5033672;28;20277;-79
2022/06/14 03:22:10;;;;;;;0.50;0.40;;;10.10;99.90;;;;;;5034000;28;20276;-79
2022/06/14 03:24:46;;;;;;;0.50;0.40;;;10.10;99.90;;;;;;5033702;28;20214;-79
2022/06/14 03:27:21;;;;;;;0.50;0.40;;;10.10;99.90;;;;;;5033027;28;20339;-79
2022/06/14 03:29:52;;;;;;;0.50;0.40;;;10.00;99.90;;;;;;5035878;28;20221;-80
2022/06/14 03:32:28;;;;;;;0.50;0.40;;;10.00;99.90;;;;;;5048026;28;20201;-80
2022/06/14 03:35:03;;;;;;;0.50;0.40;;;10.00;99.90;;;;;;5039214;28;20224;-79
2022/06/14 03:37:30;;;;;;;0.50;0.40;;;10.00;99.90;;;;;;5033745;28;20303;-80
2022/06/14 03:40:01;;;;;;;0.50;0.40;;;9.90;99.90;;;;;;5038588;28;20238;-80
2022/06/14 03:42:30;;;;;;;0.50;0.40;;;9.90;99.90;;;;;;5043213;28;20162;-79
2022/06/14 03:44:59;;;;;;;0.50;0.40;;;10.00;99.90;;;;;;5047841;28;20232;-79
2022/06/14 03:47:28;;;;;;;0.50;0.40;;;10.00;99.90;;;;;;5049955;28;20219;-79
2022/06/14 03:50:06;;;;;;;0.50;0.40;;;10.00;99.90;;;;;;5047817;28;20225;-80
2022/06/14 03:52:59;;;;;;;0.50;0.40;;;10.00;99.90;;;;;;5050486;28;20208;-81
2022/06/14 03:55:42;;;;;;;0.50;0.40;;;10.10;99.90;;;;;;5052904;28;20186;-80
2022/06/14 03:58:21;;;;;;;0.50;0.40;;;10.20;99.90;;;;;;5037360;28;20221;-79
2022/06/14 04:00:53;;;;;;;0.50;0.40;;;10.20;99.90;;;;;;5033251;28;20221;-79
2022/06/14 04:03:41;;;;;;;0.50;0.40;;;10.20;99.90;;;;;;5033224;28;20185;-78
2022/06/14 04:06:17;;;;;;;0.50;0.40;;;10.20;99.90;;;;;;5033006;28;20387;-79
2022/06/14 04:08:52;;;;;;;0.50;0.40;;;10.20;99.90;;;;;;5032812;28;20845;-77
2022/06/14 04:11:33;;;;;;;0.50;0.40;;;10.20;99.90;;;;;;5032905;28;20196;-78
2022/06/14 04:14:11;;;;;;;0.50;0.40;;;10.40;99.90;;;;;;5033170;28;20206;-79
2022/06/14 04:16:48;;;;;;;0.50;0.40;;;10.40;99.90;;;;;;5033218;28;20213;-77
2022/06/14 04:19:30;;;;;;;0.50;0.40;;;10.50;99.90;;;;;;5032858;28;20236;-77
2022/06/14 04:22:03;;;;;;;0.50;0.40;;;10.40;99.90;;;;;;5032686;28;20273;-77
2022/06/14 04:24:35;;;;;;;0.50;0.40;;;10.40;99.90;;;;;;5032959;28;20201;-78
2022/06/14 04:27:10;;;;;;;0.50;0.40;;;10.40;99.90;;;;;;5032382;28;20408;-77
2022/06/14 04:29:45;;;;;;;0.50;0.40;;;10.40;99.90;;;;;;5032437;28;20283;-77
2022/06/14 04:32:19;;;;;;;0.50;0.40;;;10.40;99.90;;;;;;5032709;28;20197;-76
2022/06/14 04:34:49;;;;;;;0.50;0.40;;;10.50;99.90;;;;;;5032658;28;20760;-78
2022/06/14 04:37:23;;;;;;;0.50;0.40;;;10.50;99.90;;;;;;5032799;28;20257;-79
2022/06/14 04:39:56;;;;;;;0.50;0.40;;;10.60;99.90;;;;;;5033091;28;20201;-78
2022/06/14 04:42:29;;;;;;;0.50;0.40;;;10.60;99.90;;;;;;5036674;28;20283;-79
2022/06/14 04:45:05;;;;;;;7.03;5.07;;;10.70;99.90;;;;;;5037403;28;20245;-77
2022/06/14 04:47:36;;;;;;;0.50;0.40;;;10.80;99.90;;;;;;5032431;28;20292;-78
2022/06/14 04:50:09;;;;;;;0.50;0.40;;;10.80;99.90;;;;;;5036602;28;20273;-79
2022/06/14 04:52:40;;;;;;;0.50;0.40;;;10.80;99.90;;;;;;5036422;28;20225;-79
2022/06/14 04:55:13;;;;;;;0.50;0.40;;;10.90;99.90;;;;;;5036204;28;20301;-77
2022/06/14 04:57:44;;;;;;;0.50;0.40;;;11.00;99.90;;;;;;5036512;28;20260;-77
2022/06/14 05:00:16;;;;;;;0.50;0.40;;;11.00;99.90;;;;;;5034730;28;20301;-77
2022/06/14 05:02:48;;;;;;;0.50;0.40;;;11.10;99.90;;;;;;5016305;28;20294;-79
2022/06/14 05:05:21;;;;;;;0.50;0.40;;;11.20;99.90;;;;;;5016541;28;20226;-79
2022/06/14 05:07:52;;;;;;;0.50;0.40;;;11.30;99.90;;;;;;5016716;28;20215;-78
2022/06/14 05:10:23;;;;;;;0.50;0.40;;;11.40;99.90;;;;;;5019318;28;20293;-79
2022/06/14 05:12:55;;;;;;;0.50;0.40;;;11.50;99.90;;;;;;5034644;28;20283;-78
2022/06/14 05:15:29;;;;;;;0.50;0.40;;;11.60;99.90;;;;;;5037129;28;20282;-78
2022/06/14 05:18:01;;;;;;;0.50;0.40;;;11.70;99.90;;;;;;5036538;28;20225;-79
2022/06/14 05:20:35;;;;;;;0.50;0.40;;;11.90;99.90;;;;;;5037896;28;20203;-79
2022/06/14 05:23:09;;;;;;;0.50;0.40;;;12.00;99.90;;;;;;5037255;28;20197;-78
2022/06/14 05:25:47;;;;;;;0.50;0.40;;;12.20;99.90;;;;;;5036732;28;20309;-79
2022/06/14 05:28:17;;;;;;;0.50;0.40;;;12.30;99.90;;;;;;5035444;28;20237;-79
2022/06/14 05:33:38;;;;;;;0.50;0.40;;;12.60;99.90;;;;;;5056270;28;20259;-81
2022/06/14 05:36:12;;;;;;;0.50;0.40;;;12.70;99.90;;;;;;5060365;28;20191;-79
2022/06/14 05:38:46;;;;;;;0.50;0.40;;;12.80;99.90;;;;;;5062042;28;20617;-83
2022/06/14 05:41:17;;;;;;;0.50;0.40;;;12.90;99.90;;;;;;5062723;28;20219;-84
2022/06/14 05:43:48;;;;;;;0.50;0.40;;;13.10;99.90;;;;;;5062670;28;20191;-83
2022/06/14 05:46:21;;;;;;;0.50;0.40;;;13.30;99.90;;;;;;5061856;28;20234;-84
2022/06/14 05:48:52;;;;;;;0.50;0.40;;;13.60;99.90;;;;;;5062181;28;20441;-84
2022/06/14 05:51:21;;;;;;;0.50;0.40;;;13.90;99.90;;;;;;5062070;28;20993;-84
2022/06/14 05:53:53;;;;;;;0.50;0.40;;;14.20;99.90;;;;;;5061425;28;20249;-83
2022/06/14 05:56:31;;;;;;;0.60;0.60;;;14.50;99.90;;;;;;5062959;28;20453;-83
2022/06/14 05:59:03;;;;;;;0.50;0.40;;;14.90;99.90;;;;;;5062057;28;20445;-84
2022/06/14 06:01:35;;;;;;;0.60;0.50;;;15.10;99.90;;;;;;5062147;28;20970;-83
2022/06/14 06:04:10;;;;;;;0.50;0.40;;;15.30;99.90;;;;;;5060090;28;20440;-84
2022/06/14 06:06:41;;;;;;;0.50;0.37;;;15.50;99.90;;;;;;5060055;28;20433;-85
2022/06/14 06:09:14;;;;;;;0.50;0.30;;;15.70;99.90;;;;;;5060331;28;20468;-84
2022/06/14 06:11:45;;;;;;;0.50;0.40;;;15.90;99.90;;;;;;5060576;28;20517;-83
2022/06/14 06:14:17;;;;;;;0.97;0.97;;;16.10;99.90;;;;;;5059505;28;20548;-82
2022/06/14 06:16:48;;;;;;;0.50;0.40;;;16.50;99.90;;;;;;5059019;28;20520;-84
2022/06/14 06:19:20;;;;;;;0.50;0.40;;;16.70;99.90;;;;;;5060019;28;20429;-83
2022/06/14 06:21:53;;;;;;;0.50;0.30;;;17.10;99.90;;;;;;5061497;28;20463;-84
2022/06/14 06:24:24;;;;;;;0.50;0.30;;;17.30;99.90;;;;;;5061580;28;20425;-83
2022/06/14 06:26:57;;;;;;;0.50;0.33;;;17.60;99.90;;;;;;5062713;28;20491;-81
2022/06/14 06:29:29;;;;;;;0.50;0.33;;;18.00;99.90;;;;;;5061380;28;20493;-84
2022/06/14 06:31:56;;;;;;;0.50;0.40;;;18.20;99.90;;;;;;5060910;28;20461;-83
2022/06/14 06:34:26;;;;;;;0.50;0.40;;;18.50;99.90;;;;;;5060506;28;20471;-82
2022/06/14 06:37:03;;;;;;;0.50;0.30;;;18.70;99.90;;;;;;5060325;28;20471;-83
2022/06/14 06:39:41;;;;;;;0.50;0.30;;;19.40;99.90;;;;;;5059341;28;20436;-82
2022/06/14 06:42:13;;;;;;;0.50;0.30;;;20.20;99.90;;;;;;5059819;28;20452;-82
2022/06/14 06:44:47;;;;;;;0.50;0.40;;;20.70;99.90;;;;;;5060648;28;20453;-82
2022/06/14 06:47:18;;;;;;;0.50;0.30;;;22.20;99.90;;;;;;5061327;28;20969;-80
2022/06/14 06:49:59;;;;;;;0.60;0.30;;;23.70;99.90;;;;;;5061025;28;20857;-83
2022/06/14 06:52:36;;;;;;;0.50;0.30;;;25.00;91.80;;;;;;5060423;28;20456;-83
2022/06/14 06:55:10;;;;;;;0.50;0.40;;;26.30;85.20;;;;;;5060059;28;20484;-84
2022/06/14 06:57:41;;;;;;;0.50;0.30;;;27.20;77.70;;;;;;5060549;28;20457;-83
2022/06/14 07:00:11;;;;;;;0.50;0.30;;;27.70;75.40;;;;;;5060592;28;20461;-80
2022/06/14 07:02:44;;;;;;;0.50;0.30;;;27.90;70.10;;;;;;5059643;28;20473;-84
2022/06/14 07:05:15;;;;;;;0.50;0.30;;;28.70;66.60;;;;;;5060267;28;20873;-83
2022/06/14 07:07:53;;;;;;;0.50;0.30;;;29.20;62.90;;;;;;5059958;28;20449;-82
2022/06/14 07:10:29;;;;;;;0.50;0.30;;;29.60;61.70;;;;;;5060874;28;20421;-82
2022/06/14 07:13:01;;;;;;;0.50;0.30;;;29.80;59.10;;;;;;5061090;28;20894;-81
2022/06/14 07:15:35;;;;;;;0.50;0.40;;;29.30;58.80;;;;;;5060375;28;20525;-83
2022/06/14 07:18:11;;;;;;;0.50;0.50;;;29.40;59.50;;;;;;5059788;28;20525;-83
2022/06/14 07:20:51;;;;;;;1.90;1.23;;;29.70;58.60;;;;;;5060285;28;20861;-82
2022/06/14 07:23:23;;;;;;;0.50;0.40;;;30.40;56.90;;;;;;5059845;28;20428;-82
2022/06/14 07:26:00;;;;;;;0.50;0.30;;;30.90;56.40;;;;;;5059714;28;20437;-83
2022/06/14 07:28:35;;;;;;;0.50;0.30;;;31.10;55.90;;;;;;5059153;28;20425;-83
2022/06/14 07:31:06;;;;;;;0.50;0.30;;;30.30;54.80;;;;;;5059195;28;20448;-82
2022/06/14 07:33:35;;;;;;;0.50;0.30;;;28.70;56.20;;;;;;5059048;28;20718;-84
2022/06/14 07:36:12;;;;;;;0.50;0.40;;;28.70;58.00;;;;;;5058786;28;20437;-83
2022/06/14 07:38:49;;;;;;;0.50;0.30;;;29.70;57.00;;;;;;5059896;28;20436;-81
2022/06/14 07:41:25;;;;;;;0.50;0.30;;;30.50;56.00;;;;;;5059096;28;20456;-83
2022/06/14 07:43:59;;;;;;;0.50;0.30;;;31.10;54.00;;;;;;5059038;28;20505;-83
2022/06/14 07:46:34;;;;;;;0.50;0.30;;;31.60;53.80;;;;;;5058526;28;20463;-83
2022/06/14 07:49:06;;;;;;;0.50;0.30;;;31.50;52.60;;;;;;5058505;28;20445;-80
2022/06/14 07:51:40;;;;;;;0.50;0.30;;;31.80;53.00;;;;;;5059134;28;20508;-84
2022/06/14 07:54:13;;;;;;;0.50;0.30;;;31.30;52.00;;;;;;5059558;28;20533;-83
2022/06/14 07:56:45;;;;;;;0.50;0.30;;;30.00;52.70;;;;;;5058600;28;20524;-83
2022/06/14 07:59:17;;;;;;;0.50;0.30;;;28.20;55.60;;;;;;5058374;28;20947;-82
2022/06/14 08:01:51;;;;;;;0.50;0.30;;;26.90;57.50;;;;;;5059365;28;20539;-82
2022/06/14 08:04:25;;;;;;;0.50;0.40;;;26.00;59.70;;;;;;5058908;28;20449;-83
2022/06/14 08:06:58;;;;;;;0.50;0.30;;;24.70;61.40;;;;;;5059106;28;20571;-82
2022/06/14 08:09:30;;;;;;;0.50;0.30;;;23.70;64.20;;;;;;5058567;28;20456;-83
2022/06/14 08:11:59;;;;;;;1.47;1.47;;;23.00;66.50;;;;;;5058750;28;20468;-82
2022/06/14 08:14:33;;;;;;;0.50;0.40;;;22.50;68.10;;;;;;5058915;28;20496;-83
2022/06/14 08:17:02;;;;;;;2.00;1.90;;;22.00;71.00;;;;;;5062661;28;20457;-81
2022/06/14 08:19:34;;;;;;;0.50;0.30;;;21.50;73.00;;;;;;5062514;28;20510;-83
2022/06/14 08:22:07;;;;;;;0.50;0.30;;;21.10;73.70;;;;;;5063468;28;20556;-84
2022/06/14 08:24:39;;;;;;;0.50;0.40;;;20.90;77.50;;;;;;5062382;28;20432;-82
2022/06/14 08:27:12;;;;;;;0.50;0.43;;;20.70;87.10;;;;;;5061993;28;20453;-83
2022/06/14 08:29:44;;;;;;;0.50;0.30;;;21.00;89.50;;;;;;5061830;28;20425;-83
2022/06/14 08:32:17;;;;;;;0.50;0.30;;;22.80;86.20;;;;;;5062592;28;20622;-83
2022/06/14 08:34:48;;;;;;;0.50;0.30;;;25.60;75.50;;;;;;5062987;28;20491;-84
2022/06/14 08:37:25;;;;;;;0.50;0.30;;;27.80;65.40;;;;;;5062535;28;20445;-81
2022/06/14 08:39:57;;;;;;;0.50;0.30;;;29.60;58.50;;;;;;5062040;28;20444;-84
2022/06/14 08:42:29;;;;;;;0.50;0.30;;;31.20;54.80;;;;;;5062358;28;20469;-83
2022/06/14 08:45:00;;;;;;;0.50;0.30;;;31.90;55.20;;;;;;5062234;28;20472;-78
2022/06/14 08:47:41;;;;;;;0.50;0.30;;;32.40;52.00;;;;;;5062246;28;20505;-83
2022/06/14 08:50:23;;;;;;;0.50;0.40;;;33.70;49.50;;;;;;5062269;28;20524;-79
2022/06/14 08:53:15;;;;;;;0.50;0.40;;;34.70;45.70;;;;;;5061664;28;20484;-83
2022/06/14 08:55:57;;;;;;;0.50;0.30;;;32.80;45.90;;;;;;5061331;28;20510;-83
2022/06/14 08:59:01;;;;;;;0.50;0.40;;;32.30;47.40;;;;;;5061684;28;20468;-82
2022/06/14 09:01:45;;;;;;;0.50;0.30;;;30.50;48.40;;;;;;5061354;28;20555;-82
2022/06/14 09:04:51;;;;;;;0.50;0.30;;;28.70;51.30;;;;;;5063740;28;20912;-84
2022/06/14 09:08:06;;;;;;;0.50;0.30;;;28.60;55.30;;;;;;5060553;28;20516;-82
2022/06/14 09:11:06;;;;;;;0.50;0.33;;;29.40;52.80;;;;;;5040843;28;20449;-83
2022/06/14 09:13:58;;;;;;;0.50;0.30;;;30.10;52.00;;;;;;5048294;28;20469;-83
2022/06/14 09:16:48;;;;;;;0.50;0.30;;;30.00;50.30;;;;;;5061311;28;20441;-83
2022/06/14 09:19:28;;;;;;;0.50;0.30;;;30.30;49.60;;;;;;5060808;28;20461;-82
2022/06/14 09:22:16;;;;;;;0.50;0.30;;;29.70;51.30;;;;;;5060561;28;20800;-83
2022/06/14 09:25:08;;;;;;;0.80;0.80;;;28.70;52.10;;;;;;5060826;28;20568;-82
2022/06/14 09:28:08;;;;;;;0.50;0.30;;;27.60;54.10;;;;;;5060297;28;20449;-83
2022/06/14 09:30:51;;;;;;;0.50;0.43;;;26.70;56.40;;;;;;5058852;28;20912;-83
2022/06/14 09:33:53;;;;;;;0.50;0.30;;;26.00;57.30;;;;;;5061730;28;20962;-83
2022/06/14 09:37:06;;;;;;;1.10;1.07;;;25.60;58.30;;;;;;5062096;28;20413;-82
2022/06/14 09:40:01;;;;;;;0.50;0.30;;;25.20;59.10;;;;;;5061416;28;20532;-83
2022/06/14 09:43:08;;;;;;;0.50;0.30;;;25.70;62.60;;;;;;5061770;28;20492;-82
2022/06/14 09:46:02;;;;;;;0.50;0.30;;;28.00;58.80;;;;;;5060140;28;20476;-83
2022/06/14 09:49:12;;;;;;;0.50;0.40;;;29.30;53.50;;;;;;5053046;28;20440;-82
2022/06/14 09:52:09;;;;;;;0.50;0.30;;;31.10;52.40;;;;;;5061002;28;20492;-83
2022/06/14 09:55:13;;;;;;;0.50;0.30;;;31.80;50.00;;;;;;5061510;28;20430;-82
2022/06/14 09:58:02;;;;;;;0.50;0.30;;;31.10;49.70;;;;;;5020464;28;20465;-83
2022/06/14 10:00:38;;;;;;;0.50;0.40;;;30.20;51.60;;;;;;5061409;28;20491;-84
2022/06/14 10:03:34;;;;;;;0.50;0.30;;;29.70;51.10;;;;;;5061185;28;20496;-82
2022/06/14 10:06:38;;;;;;;0.50;0.30;;;30.40;52.30;;;;;;5031763;28;20586;-83
2022/06/14 10:09:20;;;;;;;0.50;0.30;;;31.80;50.70;;;;;;4979883;28;20448;-82
2022/06/14 10:12:00;;;;;;;0.50;0.30;;;32.90;48.50;;;;;;5050596;28;20532;-84
2022/06/14 10:14:41;;;;;;;0.50;0.30;;;33.50;49.30;;;;;;5061014;28;20532;-82
2022/06/14 10:17:27;;;;;;;0.50;0.30;;;34.80;47.80;;;;;;5060816;28;20532;-83
2022/06/14 10:20:23;;;;;;;0.50;0.40;;;35.50;46.50;;;;;;5061390;28;20871;-83
2022/06/14 10:23:06;;;;;;;0.50;0.40;;;35.80;45.50;;;;;;5044208;28;20465;-84
2022/06/14 10:28:11;;;;;;;0.50;0.40;;;35.10;45.00;;;;;;5061436;28;20473;-81
2022/06/14 10:28:43;;;;;;;0.40;0.30;;;35.10;45.00;;;;;;5060561;28;20410;-85
2022/06/14 10:31:17;;;;;;;0.50;0.30;;;35.60;44.50;;;;;;5059880;28;20953;-83
2022/06/14 10:33:50;;;;;;;0.50;0.50;;;36.00;44.00;;;;;;5060028;28;20460;-82
2022/06/14 10:36:49;;;;;;;0.40;0.30;;;35.90;45.30;;;;;;5060639;28;20456;-84
2022/06/14 10:39:55;;;;;;;0.40;0.30;;;36.30;44.40;;;;;;5058463;28;20930;-83
2022/06/14 10:42:30;;;;;;;0.40;0.30;;;36.40;45.10;;;;;;5060866;28;20461;-83
2022/06/14 10:45:05;;;;;;;0.40;0.30;;;36.90;41.80;;;;;;5061055;28;20467;-81
2022/06/14 10:47:46;;;;;;;0.50;0.40;;;36.50;41.60;;;;;;5059972;28;20490;-82
2022/06/14 10:50:26;;;;;;;0.40;0.30;;;36.50;41.00;;;;;;5059780;28;20460;-82
2022/06/14 10:53:06;;;;;;;0.40;0.30;;;36.20;41.10;;;;;;5060850;28;20567;-81
2022/06/14 10:56:11;;;;;;;0.40;0.30;;;36.10;43.00;;;;;;5059698;28;20420;-83
2022/06/14 10:59:08;;;;;;;0.40;0.30;;;36.10;42.90;;;;;;5060531;28;20491;-84
2022/06/14 11:01:44;;;;;;;0.40;0.30;;;37.10;42.10;;;;;;5061565;28;20455;-83
2022/06/14 11:04:20;;;;;;;0.70;0.70;;;37.20;41.10;;;;;;5060577;28;20428;-81
2022/06/14 11:07:12;;;;;;;0.60;0.60;;;37.30;41.00;;;;;;5060034;28;20410;-84
2022/06/14 11:10:03;;;;;;;0.40;0.30;;;36.60;40.50;;;;;;5060456;28;20467;-84
2022/06/14 11:12:48;;;;;;;0.70;0.67;;;35.70;41.80;;;;;;5060367;28;20552;-83
2022/06/14 11:15:21;;;;;;;0.50;0.40;;;36.10;41.00;;;;;;5060836;28;20483;-84
2022/06/14 11:18:03;;;;;;;0.50;0.40;;;35.40;42.20;;;;;;5060434;28;20448;-83
2022/06/14 11:20:42;;;;;;;0.40;0.30;;;35.50;41.90;;;;;;5060897;28;20994;-83
2022/06/14 11:23:17;;;;;;;0.40;0.30;;;36.10;44.00;;;;;;5060956;28;20488;-84
2022/06/14 11:25:51;;;;;;;0.40;0.30;;;36.10;42.20;;;;;;5060514;28;20977;-83
2022/06/14 11:28:27;;;;;;;0.50;0.30;;;35.80;41.80;;;;;;5060384;28;20444;-83
2022/06/14 11:31:05;;;;;;;0.50;0.30;;;34.50;43.80;;;;;;5059680;28;21001;-82
2022/06/14 11:33:48;;;;;;;0.40;0.30;;;35.10;43.10;;;;;;5061532;28;20433;-83
2022/06/14 11:36:37;;;;;;;0.40;0.30;;;36.00;43.20;;;;;;5059903;28;20501;-83
2022/06/14 11:39:24;;;;;;;0.40;0.30;;;36.50;41.30;;;;;;5059449;28;20437;-81
2022/06/14 11:41:53;;;;;;;0.70;0.50;;;35.80;40.60;;;;;;5059483;28;20548;-83
2022/06/14 11:44:36;;;;;;;3.33;2.07;;;35.60;41.70;;;;;;5059076;28;20459;-83
2022/06/14 11:47:12;;;;;;;0.50;0.50;;;34.30;41.80;;;;;;5058427;28;20460;-83
2022/06/14 11:49:44;;;;;;;0.50;0.30;;;33.90;42.20;;;;;;5058920;28;20417;-83
2022/06/14 11:52:32;;;;;;;0.50;0.30;;;33.70;42.40;;;;;;5059905;28;20489;-82
2022/06/14 11:55:12;;;;;;;0.50;0.30;;;33.90;43.10;;;;;;5059761;28;20468;-81
2022/06/14 11:57:50;;;;;;;0.50;0.40;;;34.60;43.90;;;;;;5058196;28;20465;-84
2022/06/14 12:00:28;;;;;;;0.50;0.30;;;34.40;42.00;;;;;;5059893;28;20421;-84
2022/06/14 12:03:04;;;;;;;0.50;0.40;;;34.10;42.30;;;;;;5060164;28;20515;-81
2022/06/14 12:05:44;;;;;;;0.50;0.30;;;34.40;42.40;;;;;;5059912;28;20575;-83
2022/06/14 12:08:30;;;;;;;0.40;0.30;;;34.60;42.90;;;;;;5059151;28;20605;-83
2022/06/14 12:11:05;;;;;;;0.40;0.30;;;34.70;41.50;;;;;;5058818;28;20472;-83
2022/06/14 12:14:04;;;;;;;0.50;0.30;;;33.70;41.80;;;;;;5059074;28;20497;-82
2022/06/14 12:16:37;;;;;;;0.50;0.37;;;33.70;43.00;;;;;;5059708;28;20517;-83
2022/06/14 12:19:08;;;;;;;0.50;0.30;;;33.00;43.10;;;;;;5059536;28;20445;-80
2022/06/14 12:21:44;;;;;;;0.50;0.30;;;33.30;43.70;;;;;;5059719;28;20457;-83
2022/06/14 12:24:17;;;;;;;0.50;0.30;;;34.20;43.20;;;;;;5059238;28;20480;-82
2022/06/14 12:26:55;;;;;;;0.50;0.30;;;34.70;42.60;;;;;;5059583;28;20502;-84
2022/06/14 12:29:28;;;;;;;0.50;0.40;;;35.40;42.40;;;;;;5060176;28;20437;-83
2022/06/14 12:32:06;;;;;;;0.40;0.30;;;35.50;41.50;;;;;;5059519;28;20508;-83
2022/06/14 12:34:39;;;;;;;0.50;0.30;;;35.50;41.80;;;;;;5059533;28;20453;-83
2022/06/14 12:37:28;;;;;;;0.40;0.30;;;35.90;41.40;;;;;;5059299;28;20468;-84
2022/06/14 12:40:00;;;;;;;0.40;0.30;;;36.00;40.10;;;;;;5058913;28;20499;-82
2022/06/14 12:42:32;;;;;;;0.50;0.50;;;35.30;40.10;;;;;;5058632;28;20461;-83
2022/06/14 12:45:04;;;;;;;0.40;0.30;;;35.10;41.60;;;;;;5058834;28;20452;-82
2022/06/14 12:47:36;;;;;;;0.40;0.30;;;35.00;40.50;;;;;;5057675;28;20441;-84
2022/06/14 12:50:13;;;;;;;0.50;0.30;;;34.60;42.50;;;;;;5058600;28;20464;-82
2022/06/14 12:52:46;;;;;;;0.60;0.60;;;34.50;41.00;;;;;;5058793;28;20559;-82
2022/06/14 12:55:20;;;;;;;0.50;0.30;;;33.70;41.20;;;;;;5058604;28;20429;-83
2022/06/14 12:58:00;;;;;;;0.73;0.50;;;33.90;40.60;;;;;;5057769;28;20433;-81
2022/06/14 13:00:36;;;;;;;0.50;0.30;;;33.30;40.70;;;;;;5058405;28;20428;-83
2022/06/14 13:03:13;;;;;;;1.13;0.70;;;32.90;42.40;;;;;;5061035;28;20544;-82
2022/06/14 13:05:46;;;;;;;0.50;0.30;;;33.30;43.50;;;;;;5061761;28;20902;-83
2022/06/14 13:08:20;;;;;;;0.40;0.30;;;34.10;43.20;;;;;;5060782;28;20425;-83
2022/06/14 13:10:55;;;;;;;0.40;0.30;;;35.00;42.30;;;;;;5061706;28;20444;-82
2022/06/14 13:13:57;;;;;;;0.40;0.30;;;34.60;40.70;;;;;;5061752;28;20448;-83
2022/06/14 13:16:43;;;;;;;0.40;0.30;;;34.40;40.00;;;;;;5061779;28;20456;-81
2022/06/14 13:19:18;;;;;;;1.27;0.80;;;34.80;39.60;;;;;;5061906;28;20421;-83
2022/06/14 13:22:11;;;;;;;0.40;0.30;;;35.10;39.90;;;;;;5061868;28;20548;-82
2022/06/14 13:24:49;;;;;;;1.00;0.60;;;35.00;40.10;;;;;;5061691;28;20464;-82
2022/06/14 13:27:23;;;;;;;0.40;0.30;;;34.00;41.00;;;;;;5061580;28;20500;-82
2022/06/14 13:29:59;;;;;;;0.43;0.30;;;34.20;41.90;;;;;;5061590;28;20495;-83
2022/06/14 13:32:38;;;;;;;0.40;0.30;;;34.60;42.00;;;;;;5060745;28;20491;-84
2022/06/14 13:35:30;;;;;;;0.40;0.30;;;35.10;42.10;;;;;;5060872;28;20452;-83
2022/06/14 13:38:03;;;;;;;0.40;0.30;;;35.40;41.20;;;;;;5060849;28;20444;-82
2022/06/14 13:40:37;;;;;;;0.40;0.30;;;35.00;40.80;;;;;;5060453;28;20468;-83
2022/06/14 13:43:14;;;;;;;0.40;0.30;;;34.30;39.70;;;;;;5061863;28;20880;-82